New England — V7HF3 — position and weather

sailwx.info

Track history (hours):
 
Tides and Currents Weather Stations Pressure Air Temp Water Temp Dewpoint Dewpoint Depression Visibility Wind Speed Wind Dir Waves Ship Positions

New England

Last reported at 2017-Nov-19 12:00 UTC. Time now 2017-Nov-20 07:46 UTC.
Position N 42°24' W 071°01'.

Length 182 m; draft 9.4 m.

Type: Ship. MMSI: 538002220.

Date/timePositionNaut miles runAvg speedWind from/ knotsBaromVisibWave heightAir tempDewpointWater temp
2017-Nov-19 12:00N 42°24' W 071°01'1 3.0
2017-Nov-19 11:30N 42°23' W 071°03'3 6.0
2017-Nov-19 11:00N 42°20' W 071°01'2 1.2
2017-Nov-19 09:23N 42°20' W 070°58'0 0.0
2017-Nov-19 08:35N 42°20' W 070°58'0 0.0
2017-Nov-19 08:29N 42°20' W 070°58'0 0.0
2017-Nov-19 05:41N 42°20' W 070°58'0 0.0
2017-Nov-19 05:29N 42°20' W 070°58'0 0.1
2017-Nov-19 04:17N 42°20' W 070°58'0 0.2
2017-Nov-19 03:56N 42°20' W 070°58'0 0.1
2017-Nov-19 03:20N 42°20' W 070°58'0 0.0
2017-Nov-19 02:53N 42°20' W 070°58'0 0.0
2017-Nov-19 02:29N 42°20' W 070°58'0 0.0
2017-Nov-19 01:56N 42°20' W 070°58'0 0.2
2017-Nov-19 01:30N 42°20' W 070°58'2 3.9
2017-Nov-19 00:56N 42°21' W 070°56'4 9.6
2017-Nov-19 00:30N 42°24' W 070°51'612.1
2017-Nov-19 00:00N 42°27' W 070°44'612.9
2017-Nov-18 23:30N 42°31' W 070°37'612.8
2017-Nov-18 23:01N 42°34' W 070°30'612.7
2017-Nov-18 22:30N 42°38' W 070°23'612.5
2017-Nov-18 22:00N 42°41' W 070°16'612.4
2017-Nov-18 21:30N 42°44' W 070°09'612.4
2017-Nov-18 21:00N 42°48' W 070°01'  
2017-Nov-15 17:44N 42°42' W 070°11'312.6
2017-Nov-15 17:30N 42°41' W 070°15'612.6
2017-Nov-15 17:00N 42°38' W 070°22'612.2
2017-Nov-15 16:30N 42°34' W 070°29'612.5
2017-Nov-15 16:00N 42°31' W 070°36'612.5
2017-Nov-15 15:30N 42°27' W 070°43'612.0
2017-Nov-15 15:00N 42°24' W 070°50'611.3
2017-Nov-15 14:30N 42°21' W 070°56'4 7.2
2017-Nov-15 13:58N 42°21' W 071°01'2 4.8
2017-Nov-15 13:29N 42°23' W 071°02'1 2.2
2017-Nov-15 13:01N 42°24' W 071°01'  
2017-Nov-13 01:56N 42°20' W 070°58'0 0.0
2017-Nov-13 01:12N 42°20' W 070°58'0 0.1
2017-Nov-13 01:00N 42°20' W 070°58'1 2.1
2017-Nov-13 00:30N 42°20' W 070°57'4 9.0
2017-Nov-13 00:00N 42°23' W 070°52'611.1
2017-Nov-12 23:30N 42°25' W 070°45'713.1
2017-Nov-12 23:01N 42°30' W 070°39'713.1
2017-Nov-12 22:30N 42°34' W 070°32'613.0
2017-Nov-12 22:00N 42°39' W 070°26'510.7
2017-Nov-12 21:30N 42°44' W 070°28'713.1
2017-Nov-12 21:00N 42°49' W 070°33'713.0
2017-Nov-12 20:30N 42°55' W 070°38'5 0.2
2017-Nov-11 22:25N 42°59' W 070°40'0 0.5
2017-Nov-11 21:57N 42°60' W 070°40'8 1.4
2017-Nov-11 16:27N 43°01' W 070°30'612.7
2017-Nov-11 16:00N 43°02' W 070°22'  
Track history (hours):
 
Tides and Currents Weather Stations Pressure Air Temp Water Temp Dewpoint Dewpoint Depression Visibility Wind Speed Wind Dir Waves Ship Positions

New England

Last reported at 2017-Nov-19 12:00 UTC. Time now 2017-Nov-20 07:46 UTC.
Position N 42°24' W 071°01'.

Length 182 m; draft 9.4 m.

Type: Ship. MMSI: 538002220.

Date/timePositionNaut miles runAvg speedWind from/ knotsBaromVisibWave heightAir tempDewpointWater temp
2017-Nov-19 12:00N 42°24' W 071°01'1 3.0
2017-Nov-19 11:30N 42°23' W 071°03'3 6.0
2017-Nov-19 11:00N 42°20' W 071°01'2 1.2
2017-Nov-19 09:23N 42°20' W 070°58'0 0.0
2017-Nov-19 08:35N 42°20' W 070°58'0 0.0
2017-Nov-19 08:29N 42°20' W 070°58'0 0.0
2017-Nov-19 05:41N 42°20' W 070°58'0 0.0
2017-Nov-19 05:29N 42°20' W 070°58'0 0.1
2017-Nov-19 04:17N 42°20' W 070°58'0 0.2
2017-Nov-19 03:56N 42°20' W 070°58'0 0.1
2017-Nov-19 03:20N 42°20' W 070°58'0 0.0
2017-Nov-19 02:53N 42°20' W 070°58'0 0.0
2017-Nov-19 02:29N 42°20' W 070°58'0 0.0
2017-Nov-19 01:56N 42°20' W 070°58'0 0.2
2017-Nov-19 01:30N 42°20' W 070°58'2 3.9
2017-Nov-19 00:56N 42°21' W 070°56'4 9.6
2017-Nov-19 00:30N 42°24' W 070°51'612.1
2017-Nov-19 00:00N 42°27' W 070°44'612.9
2017-Nov-18 23:30N 42°31' W 070°37'612.8
2017-Nov-18 23:01N 42°34' W 070°30'612.7
2017-Nov-18 22:30N 42°38' W 070°23'612.5
2017-Nov-18 22:00N 42°41' W 070°16'612.4
2017-Nov-18 21:30N 42°44' W 070°09'612.4
2017-Nov-18 21:00N 42°48' W 070°01'  
2017-Nov-15 17:44N 42°42' W 070°11'312.6
2017-Nov-15 17:30N 42°41' W 070°15'612.6
2017-Nov-15 17:00N 42°38' W 070°22'612.2
2017-Nov-15 16:30N 42°34' W 070°29'612.5
2017-Nov-15 16:00N 42°31' W 070°36'612.5
2017-Nov-15 15:30N 42°27' W 070°43'612.0
2017-Nov-15 15:00N 42°24' W 070°50'611.3
2017-Nov-15 14:30N 42°21' W 070°56'4 7.2
2017-Nov-15 13:58N 42°21' W 071°01'2 4.8
2017-Nov-15 13:29N 42°23' W 071°02'1 2.2
2017-Nov-15 13:01N 42°24' W 071°01'  
2017-Nov-13 01:56N 42°20' W 070°58'0 0.0
2017-Nov-13 01:12N 42°20' W 070°58'0 0.1
2017-Nov-13 01:00N 42°20' W 070°58'1 2.1
2017-Nov-13 00:30N 42°20' W 070°57'4 9.0
2017-Nov-13 00:00N 42°23' W 070°52'611.1
2017-Nov-12 23:30N 42°25' W 070°45'713.1
2017-Nov-12 23:01N 42°30' W 070°39'713.1
2017-Nov-12 22:30N 42°34' W 070°32'613.0
2017-Nov-12 22:00N 42°39' W 070°26'510.7
2017-Nov-12 21:30N 42°44' W 070°28'713.1
2017-Nov-12 21:00N 42°49' W 070°33'713.0
2017-Nov-12 20:30N 42°55' W 070°38'5 0.2
2017-Nov-11 22:25N 42°59' W 070°40'0 0.5
2017-Nov-11 21:57N 42°60' W 070°40'8 1.4
2017-Nov-11 16:27N 43°01' W 070°30'612.7
2017-Nov-11 16:00N 43°02' W 070°22'  

Dump ship's entire track history